首页
METAR-TAF:

METAR-TAF

机场 :

Muskoka, 安大略省, 加拿大

纬度: 44-58N, 经度: 079-18W, 海拔: 280米

当前天气观测

该预报发布于26分钟前的07:00 UTC
风速3节,风向南转西南
温度 22°C
湿度 94%
气压 1012 hPa
能見度: 14.5公里
阴天层高于1200英尺

METAR: CYQA 170700Z AUTO 21003KT 9SM OVC012 22/21 A2987 RMK SLP114 DENSITY ALT 2000FT

时间: 03:26 (07:26 UTC)

预报

该预报发布于11小时和48分钟前的19:38 UTC
预报有效从16日的 20点(UTC)到 17日的 02点(UTC)
风速8节,风向西转西南
能見度: 10公里
少量云层高于1500英尺
散云层高于3000英尺
阴天层高于7000英尺
短暂存在
从 16日的 20点(UTC)到 17日的 02点(UTC)
能見度: 10公里
多云层高于1500英尺
阴天层高于3000英尺
小阵雨

TAF: CYQA 161938Z 1620/1702 25008KT P6SM FEW015 SCT030 OVC070 TEMPO 1620/1702 P6SM -SHRA BKN015 OVC030 RMK FCST BASED ON AUTO OBS. NXT FCST WILL BE ISSUED AT 171145Z

超过4000个机场的气象观测和天气预报(METAR&TAF报告)。

可查询的气象台以黄色和红色小点在地图上表示。

将鼠标移到小点上方,可查看气象台名称。

然后点击查看天气观测和预报。

如需切换地图:点击带黑十字的绿色按钮放大地图;点击带横线的绿色按钮缩小地图;或者点击绿色箭头查看邻近地区的地图。


METAR-TAF: